Bitterwasser Lodge Flying Club Airfield


Codes: FYBJ/
Name: Bitterwasser Lodge Flying Club Airfield
City: Bitterwasser
Country: Namibia
Elevation: 4167 ft.
Website:
Wikipedia:

Photos at Bitterwasser Lodge Flying Club Airfield


   Photos courtesy of SpottingLog. You can add your own sightings and photos by signing up for a free trial today.



No photos found.

Weather at Bitterwasser Lodge Flying Club Airfield


Time (UTC)DescriptionTempratureWindCloud coverageVisibilityPressureHumidity
25-Jun-2024 15:00Clear Sky20°C16 mph, E0%10000m1023hPa25%
25-Jun-2024 18:00Clear Sky16°C13 mph, E0%10000m1024hPa35%
25-Jun-2024 21:00Clear Sky11°C11 mph, E0%10000m1026hPa48%
26-Jun-2024 00:00Clear Sky9°C11 mph, E0%10000m1026hPa55%
26-Jun-2024 03:00Clear Sky9°C11 mph, NE0%10000m1026hPa64%
26-Jun-2024 06:00Clear Sky8°C9 mph, E0%10000m1028hPa72%
26-Jun-2024 09:00Clear Sky17°C16 mph, E0%10000m1027hPa41%
26-Jun-2024 12:00Clear Sky21°C20 mph, NE0%10000m1021hPa28%
26-Jun-2024 15:00Clear Sky20°C18 mph, NE0%10000m1020hPa27%
26-Jun-2024 18:00Clear Sky14°C11 mph, NE0%10000m1023hPa41%
26-Jun-2024 21:00Clear Sky13°C13 mph, NE0%10000m1024hPa47%
27-Jun-2024 00:00Clear Sky11°C13 mph, NE1%10000m1024hPa53%
27-Jun-2024 03:00Clear Sky10°C11 mph, NE4%10000m1024hPa57%
27-Jun-2024 06:00Clear Sky9°C13 mph, NE3%10000m1025hPa59%
27-Jun-2024 09:00Clear Sky18°C25 mph, NE0%10000m1024hPa35%
27-Jun-2024 12:00Clear Sky21°C16 mph, NE0%10000m1020hPa26%
27-Jun-2024 15:00Clear Sky22°C11 mph, NE0%10000m1018hPa24%
27-Jun-2024 18:00Clear Sky15°C13 mph, NE1%10000m1021hPa38%
27-Jun-2024 21:00Few Clouds13°C16 mph, NE11%10000m1022hPa44%
28-Jun-2024 00:00Scattered Clouds11°C11 mph, NE30%10000m1023hPa51%
28-Jun-2024 03:00Few Clouds10°C11 mph, N19%10000m1022hPa53%
28-Jun-2024 06:00Few Clouds10°C16 mph, NE12%10000m1023hPa53%
28-Jun-2024 09:00Clear Sky20°C22 mph, N2%10000m1022hPa32%
28-Jun-2024 12:00Clear Sky24°C11 mph, N1%10000m1017hPa22%
28-Jun-2024 15:00Clear Sky24°C4 mph, N2%10000m1016hPa20%
28-Jun-2024 18:00Few Clouds17°C11 mph, E14%10000m1019hPa31%
28-Jun-2024 21:00Few Clouds15°C16 mph, NE23%10000m1020hPa39%
29-Jun-2024 00:00Scattered Clouds13°C16 mph, NE30%10000m1020hPa45%
29-Jun-2024 03:00Clear Sky12°C16 mph, N1%10000m1020hPa49%
29-Jun-2024 06:00Clear Sky12°C16 mph, N1%10000m1021hPa50%
29-Jun-2024 09:00Clear Sky22°C20 mph, N2%10000m1019hPa26%
29-Jun-2024 12:00Clear Sky26°C9 mph, NW1%10000m1016hPa17%
29-Jun-2024 15:00Clear Sky26°C2 mph, NW10%10000m1014hPa16%
29-Jun-2024 18:00Scattered Clouds18°C4 mph, N45%10000m1017hPa25%
29-Jun-2024 21:00Broken Clouds17°C4 mph, S81%10000m1018hPa30%
30-Jun-2024 00:00Broken Clouds15°C7 mph, NE83%10000m1019hPa32%
30-Jun-2024 03:00Broken Clouds13°C9 mph, NE62%10000m1019hPa37%
30-Jun-2024 06:00Scattered Clouds12°C9 mph, N32%10000m1020hPa37%
30-Jun-2024 09:00Clear Sky23°C11 mph, NW2%10000m1019hPa21%
30-Jun-2024 12:00Clear Sky26°C9 mph, NW1%10000m1016hPa16%